Greenville Downtown Airport
KGMU : now visible

Airfield :











YOU CAN JOIN US ON...

 
LOGIN :

Register | Disclaimer

   EN    FR    IT 

 









Legend :    VFR   Marginal VFR   IFR   Intensive IFR   Very Intensive IFR
Visi :
Ceiling :
>= 8 km
>= 3000ft
5 to 8 km
1000 to 3000 ft
1500m to 5 km
500 to 1000 ft
800 to 1500m
200 to 500 ft
< 800m
< 200 ft
Symbols :   Thunderstorms  Fog  Heavy snow  Heavy precipitations  Wind > 20 kt






- Airport Elevation : 1048 ft


KGMU - Greenville Downtown

CURRENT METAR :
  • 290053Z 04003KT 3SM RA BR OVC002 21/19 A3001 RMK AO2 RAE01B29 SLP155 P0006 T02060194

EXPIRED METARs :
  • 290046Z 04004KT 2 1/2SM RA BR OVC002 21/19 A3001 RMK AO2 VIS 1 3/4V4 RAE01B29 P0004 T02060194
  • 282353Z 06004KT 8SM -RA OVC004 21/19 A3002 RMK AO2 SLP159 P0005 60011 T02060194 10211 20206 56010
  • 282330Z 07003KT 4SM -RA BR OVC005 21/19 A3003 RMK AO2 CIG 002V008 P0005 T02060194
  • 282253Z 03004KT 4SM -RA BR OVC003 21/19 A3003 RMK AO2 RAB16 SLP162 P0004 T02060194
  • 282233Z 07004KT 3SM RA BR OVC003 21/19 A3004 RMK AO2 RAB16 P0003 T02060194
  • 282217Z 06004KT 1 3/4SM -RA BR OVC003 21/19 A3004 RMK AO2 RAB16 P0001 T02060194

TAF KGMU
Valid from the 29 at 00:00 until the 30 at 00:00 UTC


282330Z 2900/2924 03004KT 4SM -RA BR OVC003
FM291100 15025G35KT 2SM SHRA BR OVC004
FM291300 26032G45KT 3SM SHRA BR OVC007 WS020/20045KT
PROB30 2913/2914 2SM TSRA BR OVC004CB
FM291400 20020G28KT P6SM SHRA OVC008
PROB30 2914/2916 4SM TSRA BR OVC004CB
FM291700 22015G20KT P6SM BKN017
FM292100 22011G17KT P6SM BKN090
KZTL FIR / North America



MET'MAP, your aeronautical weather chart ! - Copyright ORBIFLY December 2007 - Disclaimer

ORBIFLY MET'MAP TEAM :

Programming & Development : Alexandra Zaïnal
Concept & original design : Baudouin d'Aumeries
Assistance for programming : Marc-Olivier Méhu
Technical & hardware support : Manuel Goepfert

Contact : metmap@orbifly.com




SOURCES & CREDITS :

   NOAA       Earth
Advisory